Flight Track Log - Related Links

Times and Time Zones

All times are in EDT time to prevent confusion due to time zone crossing. See the N960DL flight status page for this flight to view local times or setup timezone preferences in your user account.

Time Position Orientation Groundspeed Altitude Reporting Facility
EDT Latitude Longitude Course Direction KTS MPH feet Rate Location/Type
Thu 06:15:45 PM 38.8167 -77.0333 237° Southwest 172 198 1,500  Level Potomac TRACON
Thu 06:16:45 PM 38.7500 -77.0333 180° South 257 296 3,800 2,789 Climbing Potomac TRACON
Thu 06:17:00 PM 38.6658 -77.3807 234° Southwest  Level FlightAware Approximate
Thu 06:17:39 PM 38.7000 -77.1000 226° Southwest 288 331 6,800  Level Potomac TRACON
Thu 06:18:00 PM 38.6059 -77.4990 247° West  Level FlightAware Approximate
Thu 06:18:40 PM 38.7000 -77.2000 270° West 293 337 9,700  Level Potomac TRACON
Thu 06:19:00 PM 38.5547 -77.6239 237° Southwest  Level FlightAware Approximate
Thu 06:19:46 PM 38.6833 -77.3167 260° West 341 392 11,400  Level Potomac TRACON
Thu 06:20:00 PM 38.4893 -77.7380 237° Southwest  Level FlightAware Approximate
Thu 06:20:46 PM 38.6167 -77.4500 237° Southwest 397 457 12,900  Level Potomac TRACON
Thu 06:21:34 PM 38.5850 -77.5358 245° Southwest 421 484 14,400 1,927 Climbing Washington Center
Thu 06:22:35 PM 38.5283 -77.6831 244° Southwest 428 493 16,400 2,033 Climbing Washington Center
Thu 06:23:35 PM 38.4656 -77.8139 239° Southwest 434 499 18,500 1,884 Climbing Washington Center
Thu 06:24:36 PM 38.3983 -77.9417 236° Southwest 439 505 20,200 1,736 Climbing Washington Center
Thu 06:25:36 PM 38.3269 -78.0769 236° Southwest 453 521 22,000 1,729 Climbing Washington Center
Thu 06:26:34 PM 38.2531 -78.2147 236° Southwest 470 541 23,600 2,136 Climbing Washington Center
Thu 06:27:34 PM 38.1792 -78.3519 236° Southwest 470 541 26,200 2,182 Climbing Washington Center
Thu 06:28:35 PM 38.1133 -78.4869 238° Southwest 470 541 28,000 1,636 Climbing Washington Center
Thu 06:29:35 PM 38.0725 -78.6172 248° West 451 519 29,500 1,289 Climbing Washington Center
Thu 06:30:36 PM 38.0231 -78.7603 246° West 451 519 30,600 1,261 Climbing Washington Center
Thu 06:31:34 PM 37.9711 -78.9081 246° West 457 526 32,000 1,412 Climbing Washington Center
Thu 06:32:35 PM 37.9186 -79.0611 247° West 446 513 33,400 984 Climbing Washington Center
Thu 06:33:36 PM 37.8486 -79.1789 233° Southwest 429 494 34,000 303 Climbing Washington Center
Thu 06:34:34 PM 37.7700 -79.2881 228° Southwest 429 494 34,000  Level Washington Center
Thu 06:35:35 PM 37.6875 -79.3969 226° Southwest 434 499 34,000  Level Washington Center
Thu 06:36:36 PM 37.6175 -79.4958 228° Southwest 434 499 34,000  Level Washington Center
Thu 06:37:36 PM 37.5300 -79.6169 228° Southwest 434 499 34,000  Level Washington Center
Thu 06:38:35 PM 37.4514 -79.7253 228° Southwest 427 491 34,000  Level Washington Center
Thu 06:39:35 PM 37.3700 -79.8383 228° Southwest 432 497 34,000  Level Washington Center
Thu 06:40:36 PM 37.2978 -79.9364 227° Southwest 432 497 34,000  Level Washington Center
Thu 06:42:37 PM 37.1233 -80.1708 227° Southwest 443 510 34,000  Level Atlanta Center
Thu 06:43:37 PM 37.0433 -80.2814 228° Southwest 436 502 34,000  Level Atlanta Center
Thu 06:44:37 PM 36.9592 -80.3917 226° Southwest 430 495 34,000  Level Atlanta Center
Thu 06:45:37 PM 36.8811 -80.4992 228° Southwest 430 495 34,000  Level Atlanta Center
Thu 06:46:37 PM 36.8067 -80.5958 226° Southwest 430 495 34,000  Level Atlanta Center
Thu 06:47:37 PM 36.7200 -80.7108 227° Southwest 430 495 34,000  Level Atlanta Center
Thu 06:48:37 PM 36.6397 -80.8203 228° Southwest 425 489 34,000  Level Atlanta Center
Thu 06:49:37 PM 36.5611 -80.9269 227° Southwest 425 489 34,000  Level Atlanta Center
Thu 06:50:37 PM 36.4803 -81.0308 226° Southwest 425 489 34,000  Level Atlanta Center
Thu 06:51:37 PM 36.3994 -81.1369 227° Southwest 430 495 34,000  Level Atlanta Center
Thu 06:52:37 PM 36.3164 -81.2456 227° Southwest 435 501 34,000  Level Atlanta Center
Thu 06:53:37 PM 36.2333 -81.3514 226° Southwest 435 501 34,000  Level Atlanta Center
Thu 06:54:37 PM 36.1564 -81.4569 228° Southwest 430 495 34,000  Level Atlanta Center
Thu 06:55:37 PM 36.0750 -81.5622 226° Southwest 430 495 34,000  Level Atlanta Center
Thu 06:56:37 PM 35.9936 -81.6647 226° Southwest 430 495 34,000  Level Atlanta Center
Thu 06:57:37 PM 35.9122 -81.7747 228° Southwest 430 495 34,000  Level Atlanta Center
Thu 06:58:37 PM 35.8286 -81.8769 225° Southwest 430 495 34,000  Level Atlanta Center
Thu 06:59:37 PM 35.7550 -81.9711 226° Southwest 430 495 34,000  Level Atlanta Center
Thu 07:00:37 PM 35.6733 -82.0756 226° Southwest 430 495 34,000  Level Atlanta Center
Thu 07:01:37 PM 35.5894 -82.1822 226° Southwest 435 501 34,000 -200 Level Atlanta Center
Thu 07:02:37 PM 35.5097 -82.2833 226° Southwest 428 493 33,600 -850 Descending Atlanta Center
Thu 07:03:37 PM 35.4253 -82.3769 222° Southwest 419 482 32,300 -1,350 Descending Atlanta Center
Thu 07:04:37 PM 35.3453 -82.4653 222° Southwest 405 466 30,900 -1,450 Descending Atlanta Center
Thu 07:05:37 PM 35.2650 -82.5533 222° Southwest 400 460 29,400 -1,400 Descending Atlanta Center
Thu 07:06:37 PM 35.1825 -82.6461 223° Southwest 389 448 28,100 -1,200 Descending Atlanta Center
Thu 07:07:37 PM 35.1064 -82.7389 225° Southwest 383 441 27,000 -1,350 Descending Atlanta Center
Thu 07:08:37 PM 35.0319 -82.8186 221° Southwest 373 429 25,400 -1,400 Descending Atlanta Center
Thu 07:09:37 PM 34.9639 -82.8906 221° Southwest 368 423 24,200 -700 Descending Atlanta Center
Thu 07:10:37 PM 34.8894 -82.9700 221° Southwest 362 417 24,000 -450 Descending Atlanta Center
Thu 07:11:37 PM 34.8192 -83.0544 225° Southwest 357 411 23,300 -1,000 Descending Atlanta Center
Thu 07:12:37 PM 34.7447 -83.1289 219° Southwest 357 411 22,000 -1,250 Descending Atlanta Center
Thu 07:13:37 PM 34.6742 -83.2078 223° Southwest 352 405 20,800 -1,000 Descending Atlanta Center
Thu 07:14:37 PM 34.6081 -83.2817 223° Southwest 339 390 20,000 -400 Descending Atlanta Center
Thu 07:15:37 PM 34.5394 -83.3553 221° Southwest 339 390 20,000 -200 Level Atlanta Center
Thu 07:16:37 PM 34.4647 -83.4392 223° Southwest 339 390 19,600 -850 Descending Atlanta Center
Thu 07:17:37 PM 34.3964 -83.5100 221° Southwest 334 384 18,300 -1,100 Descending Atlanta Center
Thu 07:18:37 PM 34.3256 -83.5886 223° Southwest 339 390 17,400 -950 Descending Atlanta Center
Thu 07:19:37 PM 34.2528 -83.6669 222° Southwest 345 397 16,400 -1,400 Descending Atlanta Center
Thu 07:20:37 PM 34.1822 -83.7450 222° Southwest 351 404 14,600 -1,200 Descending Atlanta Center
Thu 07:21:37 PM 34.1114 -83.8206 221° Southwest 351 404 14,000 -400 Descending Atlanta Center
Thu 07:22:37 PM 34.0447 -83.8883 220° Southwest 329 379 13,800 -380 Descending Atlanta Center
Thu 07:22:56 PM 34.0167 -83.9167 220° Southwest 320 368 13,500 -575 Descending Atlanta TRACON
Thu 07:23:50 PM 33.9667 -83.9833 228° Southwest 314 361 13,100 -250 Descending Atlanta TRACON
Thu 07:24:56 PM 33.9000 -84.0500 220° Southwest 318 366 13,000 -56 Descending Atlanta TRACON
Thu 07:25:37 PM 33.8547 -84.0939 219° Southwest 317 365 13,000 -313 Level Atlanta Center
Thu 07:26:51 PM 33.7667 -84.1667 214° Southwest 275 316 12,400 -820 Descending Atlanta TRACON
Thu 07:27:56 PM 33.7333 -84.2333 239° Southwest 266 306 11,100 -750 Descending Atlanta TRACON
Thu 07:28:51 PM 33.7333 -84.3167 270° West 265 305 10,900 -939 Descending Atlanta TRACON
Thu 07:29:51 PM 33.7333 -84.4167 270° West 272 313 9,300 -1,500 Descending Atlanta TRACON
Thu 07:30:51 PM 33.7333 -84.5000 270° West 266 306 7,900 -1,250 Descending Atlanta TRACON
Thu 07:31:51 PM 33.7333 -84.5833 270° West 248 285 6,800 -1,300 Descending Atlanta TRACON
Thu 07:32:51 PM 33.7333 -84.6667 270° West 246 283 5,300 -900 Descending Atlanta TRACON
Thu 07:33:51 PM 33.7333 -84.7500 270° West 253 291 5,000 -150 Descending Atlanta TRACON
Thu 07:34:51 PM 33.7333 -84.8333 270° West 236 272 5,000  Level Atlanta TRACON
Thu 07:35:57 PM 33.7167 -84.9167 257° West 220 253 5,000  Level Atlanta TRACON
Thu 07:36:51 PM 33.6833 -84.9167 180° South 185 213 5,000 53 Level Atlanta TRACON
Thu 07:37:51 PM 33.6500 -84.9000 157° South 163 188 5,100  Climbing Atlanta TRACON
Thu 07:38:51 PM 33.6500 -84.8333 90° East 158 182 5,000 -48 Descending Atlanta TRACON
Thu 07:39:57 PM 33.6500 -84.7833 90° East 159 183 5,000  Level Atlanta TRACON
Thu 07:40:57 PM 33.6500 -84.7167 90° East 164 189 5,000  Level Atlanta TRACON
Thu 07:41:51 PM 33.6500 -84.6833 90° East 161 185 5,000 -474 Level Atlanta TRACON
Thu 07:42:51 PM 33.6500 -84.6167 90° East 168 193 4,100 -900 Descending Atlanta TRACON

Login

Don't have an account? Register now (free) for customized features, flight alerts, and more!